sensor_id;sensor_type;location;lat;lon;timestamp;P1;durP1;ratioP1;P2;durP2;ratioP2
18726;SDS011;9492;51.888;5.186;2024-01-07T00:01:57;12.87;;;9.70;;
18726;SDS011;9492;51.888;5.186;2024-01-07T00:04:23;10.80;;;8.87;;
18726;SDS011;9492;51.888;5.186;2024-01-07T00:06:49;12.17;;;10.47;;
18726;SDS011;9492;51.888;5.186;2024-01-07T00:09:15;21.23;;;13.17;;
18726;SDS011;9492;51.888;5.186;2024-01-07T00:11:41;13.80;;;10.70;;
18726;SDS011;9492;51.888;5.186;2024-01-07T00:14:07;14.03;;;10.13;;
18726;SDS011;9492;51.888;5.186;2024-01-07T00:16:34;14.43;;;10.53;;
18726;SDS011;9492;51.888;5.186;2024-01-07T00:19:00;20.63;;;12.50;;
18726;SDS011;9492;51.888;5.186;2024-01-07T00:21:26;11.90;;;8.97;;
18726;SDS011;9492;51.888;5.186;2024-01-07T00:23:52;14.97;;;11.43;;
18726;SDS011;9492;51.888;5.186;2024-01-07T00:26:18;17.40;;;11.93;;
18726;SDS011;9492;51.888;5.186;2024-01-07T00:28:43;13.00;;;9.83;;
18726;SDS011;9492;51.888;5.186;2024-01-07T00:31:11;14.17;;;11.00;;
18726;SDS011;9492;51.888;5.186;2024-01-07T00:33:37;12.80;;;9.60;;
18726;SDS011;9492;51.888;5.186;2024-01-07T00:36:03;15.10;;;11.57;;
18726;SDS011;9492;51.888;5.186;2024-01-07T00:38:29;12.00;;;9.53;;
18726;SDS011;9492;51.888;5.186;2024-01-07T00:40:55;21.90;;;13.70;;
18726;SDS011;9492;51.888;5.186;2024-01-07T00:43:21;12.10;;;10.33;;
18726;SDS011;9492;51.888;5.186;2024-01-07T00:45:47;10.87;;;9.23;;
18726;SDS011;9492;51.888;5.186;2024-01-07T00:48:16;12.63;;;9.30;;
18726;SDS011;9492;51.888;5.186;2024-01-07T00:50:42;12.33;;;9.97;;
18726;SDS011;9492;51.888;5.186;2024-01-07T00:53:08;14.47;;;11.23;;
18726;SDS011;9492;51.888;5.186;2024-01-07T00:55:34;11.53;;;9.93;;
18726;SDS011;9492;51.888;5.186;2024-01-07T00:58:01;17.67;;;12.33;;
18726;SDS011;9492;51.888;5.186;2024-01-07T01:00:27;15.83;;;11.80;;
18726;SDS011;9492;51.888;5.186;2024-01-07T01:02:54;16.83;;;11.80;;
18726;SDS011;9492;51.888;5.186;2024-01-07T01:05:20;12.37;;;10.03;;
18726;SDS011;9492;51.888;5.186;2024-01-07T01:07:46;16.60;;;11.53;;
18726;SDS011;9492;51.888;5.186;2024-01-07T01:10:12;15.10;;;10.83;;
18726;SDS011;9492;51.888;5.186;2024-01-07T01:12:41;15.33;;;10.77;;
18726;SDS011;9492;51.888;5.186;2024-01-07T01:15:07;17.47;;;11.90;;
18726;SDS011;9492;51.888;5.186;2024-01-07T01:17:34;16.07;;;11.60;;
18726;SDS011;9492;51.888;5.186;2024-01-07T01:19:59;20.57;;;14.80;;
18726;SDS011;9492;51.888;5.186;2024-01-07T01:22:25;15.50;;;12.03;;
18726;SDS011;9492;51.888;5.186;2024-01-07T01:24:51;17.00;;;11.40;;
18726;SDS011;9492;51.888;5.186;2024-01-07T01:27:18;17.00;;;12.07;;
18726;SDS011;9492;51.888;5.186;2024-01-07T01:29:44;16.83;;;12.53;;
18726;SDS011;9492;51.888;5.186;2024-01-07T01:32:10;15.53;;;10.60;;
18726;SDS011;9492;51.888;5.186;2024-01-07T01:34:36;15.73;;;10.77;;
18726;SDS011;9492;51.888;5.186;2024-01-07T01:37:02;16.43;;;10.83;;
18726;SDS011;9492;51.888;5.186;2024-01-07T01:39:29;16.83;;;11.60;;
18726;SDS011;9492;51.888;5.186;2024-01-07T01:41:55;13.90;;;10.67;;
18726;SDS011;9492;51.888;5.186;2024-01-07T01:44:21;15.43;;;10.47;;
18726;SDS011;9492;51.888;5.186;2024-01-07T01:46:47;20.07;;;12.60;;
18726;SDS011;9492;51.888;5.186;2024-01-07T01:49:13;14.70;;;11.07;;
18726;SDS011;9492;51.888;5.186;2024-01-07T01:51:39;18.90;;;11.90;;
18726;SDS011;9492;51.888;5.186;2024-01-07T01:54:05;15.03;;;11.13;;
18726;SDS011;9492;51.888;5.186;2024-01-07T01:56:32;20.40;;;12.40;;
18726;SDS011;9492;51.888;5.186;2024-01-07T01:58:59;20.50;;;12.37;;
18726;SDS011;9492;51.888;5.186;2024-01-07T02:01:25;18.43;;;12.00;;
18726;SDS011;9492;51.888;5.186;2024-01-07T02:03:51;18.10;;;11.80;;
18726;SDS011;9492;51.888;5.186;2024-01-07T02:06:18;16.57;;;11.50;;
18726;SDS011;9492;51.888;5.186;2024-01-07T02:08:45;16.00;;;12.10;;
18726;SDS011;9492;51.888;5.186;2024-01-07T02:11:15;16.13;;;10.97;;
18726;SDS011;9492;51.888;5.186;2024-01-07T02:13:41;15.20;;;11.50;;
18726;SDS011;9492;51.888;5.186;2024-01-07T02:16:07;15.50;;;11.73;;
18726;SDS011;9492;51.888;5.186;2024-01-07T02:18:33;16.57;;;12.13;;
18726;SDS011;9492;51.888;5.186;2024-01-07T02:20:59;19.07;;;12.73;;
18726;SDS011;9492;51.888;5.186;2024-01-07T02:23:25;18.70;;;13.10;;
18726;SDS011;9492;51.888;5.186;2024-01-07T02:25:51;18.83;;;12.43;;
18726;SDS011;9492;51.888;5.186;2024-01-07T02:28:17;18.50;;;12.23;;
18726;SDS011;9492;51.888;5.186;2024-01-07T02:30:43;18.30;;;13.00;;
18726;SDS011;9492;51.888;5.186;2024-01-07T02:33:09;21.13;;;12.67;;
18726;SDS011;9492;51.888;5.186;2024-01-07T02:35:35;19.47;;;13.77;;
18726;SDS011;9492;51.888;5.186;2024-01-07T02:38:01;18.13;;;12.87;;
18726;SDS011;9492;51.888;5.186;2024-01-07T02:40:27;17.20;;;12.60;;
18726;SDS011;9492;51.888;5.186;2024-01-07T02:42:53;18.57;;;14.20;;
18726;SDS011;9492;51.888;5.186;2024-01-07T02:45:21;18.00;;;12.50;;
18726;SDS011;9492;51.888;5.186;2024-01-07T02:47:47;17.93;;;12.73;;
18726;SDS011;9492;51.888;5.186;2024-01-07T02:50:13;18.40;;;13.23;;
18726;SDS011;9492;51.888;5.186;2024-01-07T02:52:41;20.20;;;13.20;;
18726;SDS011;9492;51.888;5.186;2024-01-07T02:55:07;20.87;;;13.87;;
18726;SDS011;9492;51.888;5.186;2024-01-07T02:57:33;17.23;;;12.87;;
18726;SDS011;9492;51.888;5.186;2024-01-07T02:59:59;23.57;;;15.53;;
18726;SDS011;9492;51.888;5.186;2024-01-07T03:02:25;20.03;;;13.40;;
18726;SDS011;9492;51.888;5.186;2024-01-07T03:04:51;20.83;;;14.07;;
18726;SDS011;9492;51.888;5.186;2024-01-07T03:07:17;25.43;;;16.77;;
18726;SDS011;9492;51.888;5.186;2024-01-07T03:09:43;24.07;;;15.73;;
18726;SDS011;9492;51.888;5.186;2024-01-07T03:12:09;21.57;;;15.70;;
18726;SDS011;9492;51.888;5.186;2024-01-07T03:14:35;25.03;;;14.93;;
18726;SDS011;9492;51.888;5.186;2024-01-07T03:17:01;27.77;;;17.80;;
18726;SDS011;9492;51.888;5.186;2024-01-07T03:19:27;23.67;;;15.10;;
18726;SDS011;9492;51.888;5.186;2024-01-07T03:21:53;22.60;;;14.20;;
18726;SDS011;9492;51.888;5.186;2024-01-07T03:24:19;19.53;;;13.60;;
18726;SDS011;9492;51.888;5.186;2024-01-07T03:26:45;21.63;;;14.40;;
18726;SDS011;9492;51.888;5.186;2024-01-07T03:29:11;19.70;;;13.70;;
18726;SDS011;9492;51.888;5.186;2024-01-07T03:31:37;21.90;;;14.50;;
18726;SDS011;9492;51.888;5.186;2024-01-07T03:34:03;21.50;;;15.30;;
18726;SDS011;9492;51.888;5.186;2024-01-07T03:36:29;20.07;;;12.50;;
18726;SDS011;9492;51.888;5.186;2024-01-07T03:38:55;20.70;;;14.63;;
18726;SDS011;9492;51.888;5.186;2024-01-07T03:41:21;21.97;;;14.07;;
18726;SDS011;9492;51.888;5.186;2024-01-07T03:43:47;19.63;;;13.93;;
18726;SDS011;9492;51.888;5.186;2024-01-07T03:46:13;20.07;;;14.13;;
18726;SDS011;9492;51.888;5.186;2024-01-07T03:48:40;20.67;;;14.20;;
18726;SDS011;9492;51.888;5.186;2024-01-07T03:51:06;21.30;;;14.63;;
18726;SDS011;9492;51.888;5.186;2024-01-07T03:53:32;19.53;;;13.50;;
18726;SDS011;9492;51.888;5.186;2024-01-07T03:55:58;18.40;;;13.53;;
18726;SDS011;9492;51.888;5.186;2024-01-07T03:58:24;21.70;;;13.83;;
18726;SDS011;9492;51.888;5.186;2024-01-07T04:00:50;20.03;;;14.43;;
18726;SDS011;9492;51.888;5.186;2024-01-07T04:03:16;21.67;;;14.23;;
18726;SDS011;9492;51.888;5.186;2024-01-07T04:05:43;20.37;;;13.97;;
18726;SDS011;9492;51.888;5.186;2024-01-07T04:08:10;22.37;;;15.53;;
18726;SDS011;9492;51.888;5.186;2024-01-07T04:10:36;21.50;;;14.60;;
18726;SDS011;9492;51.888;5.186;2024-01-07T04:13:02;20.27;;;14.50;;
18726;SDS011;9492;51.888;5.186;2024-01-07T04:15:29;21.23;;;14.70;;
18726;SDS011;9492;51.888;5.186;2024-01-07T04:17:55;22.00;;;14.63;;
18726;SDS011;9492;51.888;5.186;2024-01-07T04:20:21;21.00;;;14.47;;
18726;SDS011;9492;51.888;5.186;2024-01-07T04:22:47;18.50;;;14.60;;
18726;SDS011;9492;51.888;5.186;2024-01-07T04:25:13;19.17;;;12.77;;
18726;SDS011;9492;51.888;5.186;2024-01-07T04:27:41;18.40;;;14.13;;
18726;SDS011;9492;51.888;5.186;2024-01-07T04:30:07;19.90;;;14.00;;
18726;SDS011;9492;51.888;5.186;2024-01-07T04:32:34;20.70;;;14.47;;
18726;SDS011;9492;51.888;5.186;2024-01-07T04:35:00;19.90;;;14.37;;
18726;SDS011;9492;51.888;5.186;2024-01-07T04:37:26;21.53;;;14.93;;
18726;SDS011;9492;51.888;5.186;2024-01-07T04:39:52;20.77;;;14.57;;
18726;SDS011;9492;51.888;5.186;2024-01-07T04:42:18;19.63;;;14.37;;
18726;SDS011;9492;51.888;5.186;2024-01-07T04:44:44;21.47;;;14.77;;
18726;SDS011;9492;51.888;5.186;2024-01-07T04:47:26;20.63;;;13.77;;
18726;SDS011;9492;51.888;5.186;2024-01-07T04:49:52;21.43;;;15.33;;
18726;SDS011;9492;51.888;5.186;2024-01-07T04:52:18;18.90;;;14.27;;
18726;SDS011;9492;51.888;5.186;2024-01-07T04:54:45;20.63;;;13.90;;
18726;SDS011;9492;51.888;5.186;2024-01-07T04:57:11;22.77;;;14.60;;
18726;SDS011;9492;51.888;5.186;2024-01-07T04:59:37;22.63;;;14.70;;
18726;SDS011;9492;51.888;5.186;2024-01-07T05:02:03;19.60;;;13.50;;
18726;SDS011;9492;51.888;5.186;2024-01-07T05:04:29;20.87;;;14.83;;
18726;SDS011;9492;51.888;5.186;2024-01-07T05:06:55;20.73;;;14.27;;
18726;SDS011;9492;51.888;5.186;2024-01-07T05:09:21;20.77;;;14.63;;
18726;SDS011;9492;51.888;5.186;2024-01-07T05:11:47;21.27;;;14.63;;
18726;SDS011;9492;51.888;5.186;2024-01-07T05:14:13;22.70;;;15.87;;
18726;SDS011;9492;51.888;5.186;2024-01-07T05:16:39;20.57;;;13.73;;
18726;SDS011;9492;51.888;5.186;2024-01-07T05:19:05;20.60;;;14.37;;
18726;SDS011;9492;51.888;5.186;2024-01-07T05:21:30;20.57;;;14.77;;
18726;SDS011;9492;51.888;5.186;2024-01-07T05:23:56;20.03;;;14.20;;
18726;SDS011;9492;51.888;5.186;2024-01-07T05:26:22;22.60;;;14.20;;
18726;SDS011;9492;51.888;5.186;2024-01-07T05:28:48;23.27;;;14.73;;
18726;SDS011;9492;51.888;5.186;2024-01-07T05:31:18;20.93;;;14.90;;
18726;SDS011;9492;51.888;5.186;2024-01-07T05:33:44;24.43;;;15.47;;
18726;SDS011;9492;51.888;5.186;2024-01-07T05:36:14;23.27;;;15.37;;
18726;SDS011;9492;51.888;5.186;2024-01-07T05:38:43;23.30;;;15.93;;
18726;SDS011;9492;51.888;5.186;2024-01-07T05:41:12;21.23;;;15.47;;
18726;SDS011;9492;51.888;5.186;2024-01-07T05:43:38;22.47;;;15.73;;
18726;SDS011;9492;51.888;5.186;2024-01-07T05:46:04;23.27;;;15.37;;
18726;SDS011;9492;51.888;5.186;2024-01-07T05:48:30;21.37;;;14.73;;
18726;SDS011;9492;51.888;5.186;2024-01-07T05:51:06;20.40;;;15.03;;
18726;SDS011;9492;51.888;5.186;2024-01-07T05:53:32;20.07;;;14.67;;
18726;SDS011;9492;51.888;5.186;2024-01-07T05:55:59;19.47;;;13.27;;
18726;SDS011;9492;51.888;5.186;2024-01-07T05:58:25;20.60;;;14.50;;
18726;SDS011;9492;51.888;5.186;2024-01-07T06:00:51;18.57;;;13.53;;
18726;SDS011;9492;51.888;5.186;2024-01-07T06:03:17;18.43;;;13.50;;
18726;SDS011;9492;51.888;5.186;2024-01-07T06:05:43;16.77;;;13.13;;
18726;SDS011;9492;51.888;5.186;2024-01-07T06:08:09;17.20;;;12.70;;
18726;SDS011;9492;51.888;5.186;2024-01-07T06:10:35;16.93;;;12.73;;
18726;SDS011;9492;51.888;5.186;2024-01-07T06:13:01;16.30;;;12.87;;
18726;SDS011;9492;51.888;5.186;2024-01-07T06:15:28;16.33;;;12.30;;
18726;SDS011;9492;51.888;5.186;2024-01-07T06:17:54;15.77;;;11.53;;
18726;SDS011;9492;51.888;5.186;2024-01-07T06:20:20;14.53;;;11.53;;
18726;SDS011;9492;51.888;5.186;2024-01-07T06:22:46;15.13;;;11.47;;
18726;SDS011;9492;51.888;5.186;2024-01-07T06:25:12;17.20;;;12.00;;
18726;SDS011;9492;51.888;5.186;2024-01-07T06:27:38;14.33;;;11.40;;
18726;SDS011;9492;51.888;5.186;2024-01-07T06:30:05;15.67;;;11.43;;
18726;SDS011;9492;51.888;5.186;2024-01-07T06:32:31;16.03;;;11.77;;
18726;SDS011;9492;51.888;5.186;2024-01-07T06:34:58;14.47;;;11.40;;
18726;SDS011;9492;51.888;5.186;2024-01-07T06:37:24;14.57;;;11.40;;
18726;SDS011;9492;51.888;5.186;2024-01-07T06:39:50;15.17;;;11.33;;
18726;SDS011;9492;51.888;5.186;2024-01-07T06:42:16;17.03;;;12.30;;
18726;SDS011;9492;51.888;5.186;2024-01-07T06:44:42;17.30;;;12.43;;
18726;SDS011;9492;51.888;5.186;2024-01-07T06:47:08;16.97;;;12.60;;
18726;SDS011;9492;51.888;5.186;2024-01-07T06:49:34;14.57;;;10.83;;
18726;SDS011;9492;51.888;5.186;2024-01-07T06:52:00;14.17;;;11.33;;
18726;SDS011;9492;51.888;5.186;2024-01-07T06:54:26;14.10;;;11.10;;
18726;SDS011;9492;51.888;5.186;2024-01-07T06:56:52;15.33;;;11.40;;
18726;SDS011;9492;51.888;5.186;2024-01-07T06:59:18;15.10;;;11.53;;
18726;SDS011;9492;51.888;5.186;2024-01-07T07:01:44;15.93;;;10.97;;
18726;SDS011;9492;51.888;5.186;2024-01-07T07:04:10;14.63;;;10.73;;
18726;SDS011;9492;51.888;5.186;2024-01-07T07:06:36;14.27;;;10.67;;
18726;SDS011;9492;51.888;5.186;2024-01-07T07:09:02;14.80;;;10.73;;
18726;SDS011;9492;51.888;5.186;2024-01-07T07:11:28;14.67;;;10.80;;
18726;SDS011;9492;51.888;5.186;2024-01-07T07:13:54;14.90;;;11.37;;
18726;SDS011;9492;51.888;5.186;2024-01-07T07:16:20;14.83;;;11.03;;
18726;SDS011;9492;51.888;5.186;2024-01-07T07:18:46;15.03;;;11.07;;
18726;SDS011;9492;51.888;5.186;2024-01-07T07:21:12;15.97;;;11.90;;
18726;SDS011;9492;51.888;5.186;2024-01-07T07:23:38;13.17;;;10.70;;
18726;SDS011;9492;51.888;5.186;2024-01-07T07:26:04;12.93;;;10.10;;
18726;SDS011;9492;51.888;5.186;2024-01-07T07:28:30;13.33;;;10.83;;
18726;SDS011;9492;51.888;5.186;2024-01-07T07:30:56;12.30;;;10.80;;
18726;SDS011;9492;51.888;5.186;2024-01-07T07:33:22;10.70;;;9.60;;
18726;SDS011;9492;51.888;5.186;2024-01-07T07:35:49;13.50;;;10.53;;
18726;SDS011;9492;51.888;5.186;2024-01-07T07:38:15;13.00;;;10.93;;
18726;SDS011;9492;51.888;5.186;2024-01-07T07:40:41;13.27;;;10.17;;
18726;SDS011;9492;51.888;5.186;2024-01-07T07:43:07;13.37;;;10.00;;
18726;SDS011;9492;51.888;5.186;2024-01-07T07:45:34;14.93;;;10.30;;
18726;SDS011;9492;51.888;5.186;2024-01-07T07:48:00;14.57;;;11.03;;
18726;SDS011;9492;51.888;5.186;2024-01-07T07:50:26;12.17;;;9.93;;
18726;SDS011;9492;51.888;5.186;2024-01-07T07:52:52;11.77;;;9.50;;
18726;SDS011;9492;51.888;5.186;2024-01-07T07:55:18;15.00;;;11.23;;
18726;SDS011;9492;51.888;5.186;2024-01-07T07:57:44;13.90;;;11.17;;
18726;SDS011;9492;51.888;5.186;2024-01-07T08:00:11;12.10;;;10.20;;
18726;SDS011;9492;51.888;5.186;2024-01-07T08:02:38;11.77;;;10.27;;
18726;SDS011;9492;51.888;5.186;2024-01-07T08:05:04;13.60;;;9.87;;
18726;SDS011;9492;51.888;5.186;2024-01-07T08:07:30;12.20;;;9.83;;
18726;SDS011;9492;51.888;5.186;2024-01-07T08:09:56;12.30;;;10.33;;
18726;SDS011;9492;51.888;5.186;2024-01-07T08:12:22;12.30;;;10.83;;
18726;SDS011;9492;51.888;5.186;2024-01-07T08:14:48;14.50;;;11.47;;
18726;SDS011;9492;51.888;5.186;2024-01-07T08:17:14;13.47;;;10.60;;
18726;SDS011;9492;51.888;5.186;2024-01-07T08:19:40;14.00;;;11.17;;
18726;SDS011;9492;51.888;5.186;2024-01-07T08:22:06;12.90;;;11.50;;
18726;SDS011;9492;51.888;5.186;2024-01-07T08:24:34;14.20;;;11.07;;
18726;SDS011;9492;51.888;5.186;2024-01-07T08:27:01;14.30;;;11.10;;
18726;SDS011;9492;51.888;5.186;2024-01-07T08:29:31;15.93;;;11.13;;
18726;SDS011;9492;51.888;5.186;2024-01-07T08:31:57;14.20;;;10.87;;
18726;SDS011;9492;51.888;5.186;2024-01-07T08:34:23;15.00;;;12.07;;
18726;SDS011;9492;51.888;5.186;2024-01-07T08:36:49;12.37;;;10.80;;
18726;SDS011;9492;51.888;5.186;2024-01-07T08:39:15;14.00;;;10.83;;
18726;SDS011;9492;51.888;5.186;2024-01-07T08:41:41;12.57;;;11.27;;
18726;SDS011;9492;51.888;5.186;2024-01-07T08:44:07;14.37;;;11.03;;
18726;SDS011;9492;51.888;5.186;2024-01-07T08:46:33;13.73;;;10.73;;
18726;SDS011;9492;51.888;5.186;2024-01-07T08:48:59;13.43;;;11.47;;
18726;SDS011;9492;51.888;5.186;2024-01-07T08:51:25;15.23;;;10.90;;
18726;SDS011;9492;51.888;5.186;2024-01-07T08:53:51;12.73;;;10.57;;
18726;SDS011;9492;51.888;5.186;2024-01-07T08:56:17;12.77;;;11.03;;
18726;SDS011;9492;51.888;5.186;2024-01-07T08:58:43;13.03;;;10.67;;
18726;SDS011;9492;51.888;5.186;2024-01-07T09:01:09;13.63;;;10.43;;
18726;SDS011;9492;51.888;5.186;2024-01-07T09:03:35;12.53;;;9.37;;
18726;SDS011;9492;51.888;5.186;2024-01-07T09:06:01;9.67;;;8.57;;
18726;SDS011;9492;51.888;5.186;2024-01-07T09:08:27;11.03;;;8.53;;
18726;SDS011;9492;51.888;5.186;2024-01-07T09:10:54;13.40;;;10.87;;
18726;SDS011;9492;51.888;5.186;2024-01-07T09:13:20;10.83;;;9.73;;
18726;SDS011;9492;51.888;5.186;2024-01-07T09:15:46;12.63;;;9.73;;
18726;SDS011;9492;51.888;5.186;2024-01-07T09:18:12;9.97;;;8.97;;
18726;SDS011;9492;51.888;5.186;2024-01-07T09:20:38;11.17;;;9.60;;
18726;SDS011;9492;51.888;5.186;2024-01-07T09:23:04;12.47;;;9.70;;
18726;SDS011;9492;51.888;5.186;2024-01-07T09:25:30;10.03;;;8.63;;
18726;SDS011;9492;51.888;5.186;2024-01-07T09:27:55;10.63;;;8.80;;
18726;SDS011;9492;51.888;5.186;2024-01-07T09:30:21;8.33;;;7.53;;
18726;SDS011;9492;51.888;5.186;2024-01-07T09:32:47;7.93;;;7.13;;
18726;SDS011;9492;51.888;5.186;2024-01-07T09:35:15;8.50;;;7.43;;
18726;SDS011;9492;51.888;5.186;2024-01-07T09:37:41;9.60;;;8.03;;
18726;SDS011;9492;51.888;5.186;2024-01-07T09:40:07;8.60;;;7.57;;
18726;SDS011;9492;51.888;5.186;2024-01-07T09:42:33;9.87;;;8.37;;
18726;SDS011;9492;51.888;5.186;2024-01-07T09:45:02;11.53;;;8.77;;
18726;SDS011;9492;51.888;5.186;2024-01-07T09:47:29;10.57;;;8.10;;
18726;SDS011;9492;51.888;5.186;2024-01-07T09:49:55;10.63;;;8.20;;
18726;SDS011;9492;51.888;5.186;2024-01-07T09:52:21;11.13;;;8.40;;
18726;SDS011;9492;51.888;5.186;2024-01-07T09:54:56;10.97;;;8.23;;
18726;SDS011;9492;51.888;5.186;2024-01-07T09:57:24;11.73;;;8.63;;
18726;SDS011;9492;51.888;5.186;2024-01-07T09:59:50;14.07;;;10.63;;
18726;SDS011;9492;51.888;5.186;2024-01-07T10:02:16;23.20;;;13.60;;
18726;SDS011;9492;51.888;5.186;2024-01-07T10:04:42;42.70;;;22.90;;
18726;SDS011;9492;51.888;5.186;2024-01-07T10:07:10;11.60;;;9.30;;
18726;SDS011;9492;51.888;5.186;2024-01-07T10:09:36;9.50;;;7.53;;
18726;SDS011;9492;51.888;5.186;2024-01-07T10:12:02;12.00;;;8.67;;
18726;SDS011;9492;51.888;5.186;2024-01-07T10:14:29;10.73;;;8.20;;
18726;SDS011;9492;51.888;5.186;2024-01-07T10:16:54;8.87;;;7.67;;
18726;SDS011;9492;51.888;5.186;2024-01-07T10:19:21;43.90;;;28.00;;
18726;SDS011;9492;51.888;5.186;2024-01-07T10:22:03;15.73;;;10.53;;
18726;SDS011;9492;51.888;5.186;2024-01-07T10:24:36;12.10;;;8.73;;
18726;SDS011;9492;51.888;5.186;2024-01-07T10:27:06;9.03;;;7.90;;
18726;SDS011;9492;51.888;5.186;2024-01-07T10:29:32;10.57;;;8.27;;
18726;SDS011;9492;51.888;5.186;2024-01-07T10:31:59;14.60;;;11.07;;
18726;SDS011;9492;51.888;5.186;2024-01-07T10:34:29;16.03;;;10.20;;
18726;SDS011;9492;51.888;5.186;2024-01-07T10:36:55;11.47;;;8.07;;
18726;SDS011;9492;51.888;5.186;2024-01-07T10:39:22;18.83;;;11.93;;
18726;SDS011;9492;51.888;5.186;2024-01-07T10:41:49;10.80;;;7.40;;
18726;SDS011;9492;51.888;5.186;2024-01-07T10:44:17;8.90;;;7.47;;
18726;SDS011;9492;51.888;5.186;2024-01-07T10:46:43;9.13;;;7.60;;
18726;SDS011;9492;51.888;5.186;2024-01-07T10:49:14;9.73;;;7.53;;
18726;SDS011;9492;51.888;5.186;2024-01-07T10:51:45;9.97;;;7.23;;
18726;SDS011;9492;51.888;5.186;2024-01-07T10:54:11;9.73;;;7.90;;
18726;SDS011;9492;51.888;5.186;2024-01-07T10:56:45;16.30;;;11.90;;
18726;SDS011;9492;51.888;5.186;2024-01-07T10:59:11;11.60;;;7.97;;
18726;SDS011;9492;51.888;5.186;2024-01-07T11:01:37;11.17;;;9.40;;
18726;SDS011;9492;51.888;5.186;2024-01-07T11:04:08;10.23;;;8.00;;
18726;SDS011;9492;51.888;5.186;2024-01-07T11:09:12;10.07;;;7.20;;
18726;SDS011;9492;51.888;5.186;2024-01-07T11:11:40;12.80;;;7.43;;
18726;SDS011;9492;51.888;5.186;2024-01-07T11:16:52;9.37;;;6.03;;
18726;SDS011;9492;51.888;5.186;2024-01-07T11:19:19;6.23;;;5.47;;
18726;SDS011;9492;51.888;5.186;2024-01-07T11:21:45;8.13;;;5.60;;
18726;SDS011;9492;51.888;5.186;2024-01-07T11:27:01;6.23;;;5.63;;
18726;SDS011;9492;51.888;5.186;2024-01-07T11:29:27;8.87;;;6.00;;
18726;SDS011;9492;51.888;5.186;2024-01-07T11:31:53;5.87;;;4.97;;
18726;SDS011;9492;51.888;5.186;2024-01-07T11:37:05;6.60;;;4.80;;
18726;SDS011;9492;51.888;5.186;2024-01-07T11:39:33;8.20;;;5.57;;
18726;SDS011;9492;51.888;5.186;2024-01-07T11:42:01;6.40;;;5.27;;
18726;SDS011;9492;51.888;5.186;2024-01-07T11:44:27;6.33;;;5.10;;
18726;SDS011;9492;51.888;5.186;2024-01-07T11:46:53;4.87;;;4.43;;
18726;SDS011;9492;51.888;5.186;2024-01-07T11:49:19;5.30;;;4.80;;
18726;SDS011;9492;51.888;5.186;2024-01-07T11:51:45;6.73;;;4.70;;
18726;SDS011;9492;51.888;5.186;2024-01-07T11:54:11;5.40;;;4.63;;
18726;SDS011;9492;51.888;5.186;2024-01-07T11:56:37;6.33;;;5.43;;
18726;SDS011;9492;51.888;5.186;2024-01-07T11:59:03;6.63;;;5.20;;
18726;SDS011;9492;51.888;5.186;2024-01-07T12:01:31;6.47;;;4.67;;
18726;SDS011;9492;51.888;5.186;2024-01-07T12:03:57;5.90;;;4.63;;
18726;SDS011;9492;51.888;5.186;2024-01-07T12:06:23;5.87;;;5.27;;
18726;SDS011;9492;51.888;5.186;2024-01-07T12:08:49;8.47;;;5.67;;
18726;SDS011;9492;51.888;5.186;2024-01-07T12:11:16;5.47;;;4.60;;
18726;SDS011;9492;51.888;5.186;2024-01-07T12:13:42;5.30;;;4.47;;
18726;SDS011;9492;51.888;5.186;2024-01-07T12:16:08;7.00;;;4.93;;
18726;SDS011;9492;51.888;5.186;2024-01-07T12:18:38;5.23;;;4.53;;
18726;SDS011;9492;51.888;5.186;2024-01-07T12:21:05;5.73;;;3.83;;
18726;SDS011;9492;51.888;5.186;2024-01-07T12:23:35;3.70;;;3.30;;
18726;SDS011;9492;51.888;5.186;2024-01-07T12:26:07;4.03;;;3.50;;
18726;SDS011;9492;51.888;5.186;2024-01-07T12:28:34;3.90;;;3.43;;
18726;SDS011;9492;51.888;5.186;2024-01-07T12:31:00;4.07;;;3.70;;
18726;SDS011;9492;51.888;5.186;2024-01-07T12:33:26;5.83;;;3.50;;
18726;SDS011;9492;51.888;5.186;2024-01-07T12:35:54;6.53;;;3.93;;
18726;SDS011;9492;51.888;5.186;2024-01-07T12:38:24;3.37;;;3.07;;
18726;SDS011;9492;51.888;5.186;2024-01-07T12:40:54;3.67;;;3.30;;
18726;SDS011;9492;51.888;5.186;2024-01-07T12:43:20;4.40;;;3.73;;
18726;SDS011;9492;51.888;5.186;2024-01-07T12:45:49;3.07;;;2.77;;
18726;SDS011;9492;51.888;5.186;2024-01-07T12:48:15;3.90;;;2.60;;
18726;SDS011;9492;51.888;5.186;2024-01-07T12:50:41;3.23;;;2.63;;
18726;SDS011;9492;51.888;5.186;2024-01-07T12:53:08;5.40;;;2.67;;
18726;SDS011;9492;51.888;5.186;2024-01-07T12:55:34;3.97;;;2.70;;
18726;SDS011;9492;51.888;5.186;2024-01-07T12:58:00;2.27;;;2.13;;
18726;SDS011;9492;51.888;5.186;2024-01-07T13:00:26;2.20;;;2.10;;
18726;SDS011;9492;51.888;5.186;2024-01-07T13:02:53;3.57;;;2.70;;
18726;SDS011;9492;51.888;5.186;2024-01-07T13:05:19;2.87;;;2.40;;
18726;SDS011;9492;51.888;5.186;2024-01-07T13:07:46;2.50;;;2.30;;
18726;SDS011;9492;51.888;5.186;2024-01-07T13:10:12;4.00;;;1.93;;
18726;SDS011;9492;51.888;5.186;2024-01-07T13:12:39;2.97;;;1.73;;
18726;SDS011;9492;51.888;5.186;2024-01-07T13:15:05;2.27;;;2.03;;
18726;SDS011;9492;51.888;5.186;2024-01-07T13:17:31;3.30;;;2.20;;
18726;SDS011;9492;51.888;5.186;2024-01-07T13:19:58;2.50;;;2.03;;
18726;SDS011;9492;51.888;5.186;2024-01-07T13:22:24;2.87;;;2.20;;
18726;SDS011;9492;51.888;5.186;2024-01-07T13:24:50;2.37;;;1.90;;
18726;SDS011;9492;51.888;5.186;2024-01-07T13:27:16;2.33;;;1.90;;
18726;SDS011;9492;51.888;5.186;2024-01-07T13:29:47;1.77;;;1.67;;
18726;SDS011;9492;51.888;5.186;2024-01-07T13:32:13;2.63;;;2.13;;
18726;SDS011;9492;51.888;5.186;2024-01-07T13:34:43;2.93;;;2.17;;
18726;SDS011;9492;51.888;5.186;2024-01-07T13:37:09;3.40;;;1.80;;
18726;SDS011;9492;51.888;5.186;2024-01-07T13:39:35;5.27;;;2.70;;
18726;SDS011;9492;51.888;5.186;2024-01-07T13:42:02;1.90;;;1.80;;
18726;SDS011;9492;51.888;5.186;2024-01-07T13:44:28;3.83;;;2.30;;
18726;SDS011;9492;51.888;5.186;2024-01-07T13:46:55;2.80;;;2.13;;
18726;SDS011;9492;51.888;5.186;2024-01-07T13:49:21;2.40;;;1.70;;
18726;SDS011;9492;51.888;5.186;2024-01-07T13:51:47;2.07;;;1.90;;
18726;SDS011;9492;51.888;5.186;2024-01-07T13:54:13;3.90;;;2.40;;
18726;SDS011;9492;51.888;5.186;2024-01-07T13:56:41;2.10;;;1.90;;
18726;SDS011;9492;51.888;5.186;2024-01-07T13:59:08;3.70;;;2.20;;
18726;SDS011;9492;51.888;5.186;2024-01-07T14:01:34;2.53;;;2.33;;
18726;SDS011;9492;51.888;5.186;2024-01-07T14:04:00;2.47;;;2.00;;
18726;SDS011;9492;51.888;5.186;2024-01-07T14:06:26;2.63;;;2.30;;
18726;SDS011;9492;51.888;5.186;2024-01-07T14:08:52;3.03;;;2.47;;
18726;SDS011;9492;51.888;5.186;2024-01-07T14:11:19;2.70;;;2.23;;
18726;SDS011;9492;51.888;5.186;2024-01-07T14:13:45;2.50;;;2.30;;
18726;SDS011;9492;51.888;5.186;2024-01-07T14:16:12;2.57;;;2.37;;
18726;SDS011;9492;51.888;5.186;2024-01-07T14:18:38;3.97;;;2.50;;
18726;SDS011;9492;51.888;5.186;2024-01-07T14:21:04;3.23;;;2.60;;
18726;SDS011;9492;51.888;5.186;2024-01-07T14:23:30;2.87;;;2.10;;
18726;SDS011;9492;51.888;5.186;2024-01-07T14:25:58;3.03;;;2.43;;
18726;SDS011;9492;51.888;5.186;2024-01-07T14:28:24;1.90;;;1.80;;
18726;SDS011;9492;51.888;5.186;2024-01-07T14:30:50;4.10;;;2.30;;
18726;SDS011;9492;51.888;5.186;2024-01-07T14:33:16;2.53;;;2.10;;
18726;SDS011;9492;51.888;5.186;2024-01-07T14:35:42;2.43;;;2.23;;
18726;SDS011;9492;51.888;5.186;2024-01-07T14:38:08;1.80;;;1.70;;
18726;SDS011;9492;51.888;5.186;2024-01-07T14:40:35;1.90;;;1.80;;
18726;SDS011;9492;51.888;5.186;2024-01-07T14:43:01;2.57;;;1.93;;
18726;SDS011;9492;51.888;5.186;2024-01-07T14:45:27;4.23;;;2.00;;
18726;SDS011;9492;51.888;5.186;2024-01-07T14:47:53;2.90;;;2.60;;
18726;SDS011;9492;51.888;5.186;2024-01-07T14:50:19;3.83;;;2.83;;